Airfield :
LOGIN :

Register | Disclaimer

   EN    FR    IT 

 










Legend :    VFR   Marginal VFR   IFR   Intensive IFR   Very Intensive IFR
Visi :
Ceiling :
>= 8 km
>= 3000ft
5 to 8 km
1000 to 3000 ft
1500m to 5 km
500 to 1000 ft
800 to 1500m
200 to 500 ft
< 800m
< 200 ft
Symbols :   Thunderstorms  Fog  Heavy snow  Heavy precipitations  Wind > 20 kt
SIGMETs :     Misc.  Thunderstorms  Icing  Turbulence  Mountain Waves  Volcanic Ashes






- Airport Elevation : 55 ft
- IATA code : DSA


EGCN - Robin Hood Doncaster Sheffield

CURRENT METAR :
  • 210220Z AUTO 25016KT 9999 SCT023/// 04/01 Q0974 RERA

EXPIRED METARs :
  • 210150Z 25015KT 9999 SCT028 03/01 Q0973
  • 210120Z 26014KT 9999 FEW016 SCT030 BKN035 03/01 Q0972
  • 210050Z 29014KT 9999 -RA FEW007 BKN019 02/01 Q0970
  • 210020Z 27013KT 7000 -RASN SCT003 BKN007 01/01 Q0971
  • 202350Z 28014KT 4500 -RASN BKN005 BKN008 01/01 Q0971 RERA

TAF TAF EGCN
Valid from the 21 at 00:00 until the 22 at 00:00 UTC


202301Z 2100/2124 29015KT 9999 SCT012 BKN018
TEMPO 2100/2102 28020G30KT 6000 RA BKN012
PROB30
TEMPO 2100/2102 3000 +RA RASN BKN005
PROB30
TEMPO 2102/2117 27018G28KT 6000 SHRA BKN012



MET'MAP, your aeronautical weather chart ! - Copyright ORBIFLY December 2007 - Disclaimer

ORBIFLY MET'MAP TEAM :

Programming & Development : Alexandra Zaïnal
Concept & original design : Baudouin d'Aumeries
Assistance for programming : Marc-Olivier Méhu
Technical & hardware support : Manuel Goepfert

Contact : metmap@orbifly.com




SOURCES & CREDITS :

   NOAA